createdAt,value
2018-01-30T00:02:03.500Z,61.58
2018-01-30T00:04:32.273Z,62.26
2018-01-30T00:07:01.025Z,62.58
2018-01-30T00:09:29.578Z,62.50
2018-01-30T00:11:58.110Z,63.25
2018-01-30T00:14:26.556Z,62.27
2018-01-30T00:16:55.406Z,61.81
2018-01-30T00:19:24.512Z,62.56
2018-01-30T00:21:52.968Z,62.88
2018-01-30T00:24:21.450Z,62.76
2018-01-30T00:26:49.905Z,62.04
2018-01-30T00:29:18.397Z,61.88
2018-01-30T00:31:47.211Z,61.31
2018-01-30T00:34:15.756Z,62.23
2018-01-30T00:36:44.247Z,61.44
2018-01-30T00:39:12.682Z,61.78
2018-01-30T00:41:41.558Z,61.03
2018-01-30T00:44:10.105Z,60.84
2018-01-30T00:46:38.540Z,62.57
2018-01-30T00:49:07.577Z,62.70
2018-01-30T00:51:36.035Z,62.47
2018-01-30T00:54:04.478Z,62.54
2018-01-30T00:56:33.120Z,62.12
2018-01-30T00:59:01.565Z,61.69
2018-01-30T01:01:30.401Z,61.55
2018-01-30T01:03:58.974Z,62.01
2018-01-30T01:06:27.668Z,61.16
2018-01-30T01:08:56.198Z,59.75
2018-01-30T01:11:25.048Z,60.46
2018-01-30T01:13:53.514Z,60.02
2018-01-30T01:16:22.268Z,60.06
2018-01-30T01:18:51.194Z,59.78
2018-01-30T01:21:19.653Z,59.07
2018-01-30T01:23:48.081Z,59.89
2018-01-30T01:26:17.231Z,60.95
2018-01-30T01:28:46.245Z,60.67
2018-01-30T01:31:15.894Z,59.93
2018-01-30T01:33:44.748Z,59.63
2018-01-30T01:36:13.243Z,59.70
2018-01-30T01:38:41.675Z,60.16
2018-01-30T01:41:10.751Z,59.46
2018-01-30T01:43:39.211Z,59.82
2018-01-30T01:46:07.647Z,59.82
2018-01-30T01:48:36.103Z,58.84
2018-01-30T01:51:06.107Z,60.25
2018-01-30T01:53:34.636Z,60.74
2018-01-30T01:56:03.158Z,59.34
2018-01-30T01:58:31.628Z,59.11
2018-01-30T02:01:00.102Z,59.95
2018-01-30T02:03:28.540Z,61.08
2018-01-30T02:05:58.608Z,59.07
2018-01-30T02:08:27.063Z,59.37
2018-01-30T02:10:55.544Z,59.34
2018-01-30T02:13:23.988Z,58.71
2018-01-30T02:15:52.829Z,59.40
2018-01-30T02:18:21.283Z,59.05
2018-01-30T02:20:51.133Z,59.53
2018-01-30T02:23:19.850Z,58.81
2018-01-30T02:25:48.785Z,58.06
2018-01-30T02:28:17.250Z,58.69
2018-01-30T02:30:45.757Z,58.91
2018-01-30T02:33:14.220Z,58.57
2018-01-30T02:35:43.097Z,59.27
2018-01-30T02:38:11.543Z,59.78
2018-01-30T02:40:40.088Z,60.10
2018-01-30T02:43:08.528Z,61.83
2018-01-30T02:45:37.370Z,64.18
2018-01-30T02:48:07.161Z,64.25
2018-01-30T02:50:35.607Z,63.97
2018-01-30T02:53:04.437Z,63.39
2018-01-30T02:55:32.903Z,62.82
2018-01-30T02:58:01.339Z,62.37
2018-01-30T03:00:29.848Z,61.44
2018-01-30T03:02:59.356Z,62.41
2018-01-30T03:05:27.802Z,62.04
2018-01-30T03:07:56.360Z,61.11
2018-01-30T03:10:24.849Z,60.68
2018-01-30T03:12:53.667Z,61.21
2018-01-30T03:15:22.513Z,60.78
2018-01-30T03:17:51.667Z,60.53
2018-01-30T03:20:20.767Z,60.31
2018-01-30T03:22:49.612Z,60.18
2018-01-30T03:25:18.069Z,60.91
2018-01-30T03:27:46.660Z,60.55
2018-01-30T03:30:16.540Z,59.10
2018-01-30T03:32:44.980Z,58.23
2018-01-30T03:35:13.445Z,57.96
2018-01-30T03:37:41.881Z,58.88
2018-01-30T03:40:10.716Z,59.00
2018-01-30T03:42:39.296Z,58.49
2018-01-30T03:45:08.125Z,58.02
2018-01-30T03:47:37.071Z,57.20
2018-01-30T03:50:05.531Z,57.25
2018-01-30T03:52:33.994Z,55.79
2018-01-30T03:55:03.081Z,56.71
2018-01-30T03:57:32.026Z,55.70
2018-01-30T04:00:00.729Z,55.54
2018-01-30T04:02:29.285Z,55.74
2018-01-30T04:04:57.774Z,57.45
2018-01-30T04:07:26.244Z,56.84
2018-01-30T04:09:54.792Z,55.87
2018-01-30T04:12:24.315Z,56.30
2018-01-30T04:14:52.765Z,57.14
2018-01-30T04:17:21.681Z,58.26
2018-01-30T04:19:50.126Z,57.99
2018-01-30T04:22:25.504Z,57.33
2018-01-30T04:24:57.690Z,58.39
2018-01-30T04:27:27.636Z,58.92
2018-01-30T04:29:56.442Z,58.61
2018-01-30T04:32:24.879Z,58.68
2018-01-30T04:34:53.372Z,58.54
2018-01-30T04:37:21.818Z,59.41
2018-01-30T04:39:53.405Z,59.42
2018-01-30T04:42:21.858Z,59.81
2018-01-30T04:44:50.308Z,59.24
2018-01-30T04:47:18.754Z,58.38
2018-01-30T04:49:47.196Z,57.98
2018-01-30T04:52:16.700Z,56.61
2018-01-30T04:54:45.724Z,57.41
2018-01-30T04:57:14.177Z,58.52
2018-01-30T04:59:42.688Z,57.18
2018-01-30T05:02:11.986Z,57.03
2018-01-30T05:04:40.462Z,58.20
2018-01-30T05:07:09.093Z,57.35
2018-01-30T05:09:37.541Z,57.38
2018-01-30T05:12:05.985Z,57.41
2018-01-30T05:14:34.493Z,58.10
2018-01-30T05:17:03.008Z,57.32
2018-01-30T05:19:31.465Z,57.95
2018-01-30T05:22:01.152Z,58.50
2018-01-30T05:24:29.597Z,58.06
2018-01-30T05:26:58.545Z,57.71
2018-01-30T05:29:38.232Z,58.71
2018-01-30T05:32:07.177Z,58.80
2018-01-30T05:34:36.865Z,58.25
2018-01-30T05:37:05.320Z,57.85
2018-01-30T05:39:34.254Z,57.50
2018-01-30T05:42:02.694Z,57.23
2018-01-30T05:44:31.529Z,57.00
2018-01-30T05:47:04.322Z,56.69
2018-01-30T05:49:32.888Z,57.55
2018-01-30T05:52:01.524Z,56.67
2018-01-30T05:54:30.634Z,57.45
2018-01-30T05:56:59.585Z,57.16
2018-01-30T05:59:28.556Z,57.86
2018-01-30T06:01:57.050Z,56.59
2018-01-30T06:04:25.846Z,56.36
2018-01-30T06:06:54.292Z,57.02
2018-01-30T06:09:22.762Z,56.73
2018-01-30T06:11:51.209Z,56.56
2018-01-30T06:14:19.645Z,57.05
2018-01-30T06:16:48.380Z,57.43
2018-01-30T06:19:17.539Z,57.79
2018-01-30T06:21:45.995Z,57.46
2018-01-30T06:24:15.312Z,57.15
2018-01-30T06:26:43.758Z,57.01
2018-01-30T06:29:12.821Z,57.54
2018-01-30T06:31:41.370Z,56.67
2018-01-30T06:34:10.517Z,57.02
2018-01-30T06:36:39.458Z,56.93
2018-01-30T06:39:08.354Z,56.39
2018-01-30T06:41:36.828Z,56.20
2018-01-30T06:44:05.323Z,55.70
2018-01-30T06:46:34.683Z,55.90
2018-01-30T06:49:03.156Z,54.87
2018-01-30T06:51:32.017Z,55.10
2018-01-30T06:54:00.465Z,55.81
2018-01-30T06:56:30.449Z,55.80
2018-01-30T06:58:59.415Z,55.01
2018-01-30T07:01:28.164Z,54.99
2018-01-30T07:03:56.617Z,56.30
2018-01-30T07:06:25.069Z,56.00
2018-01-30T07:08:53.909Z,54.68
2018-01-30T07:11:22.383Z,54.37
2018-01-30T07:13:56.377Z,54.81
2018-01-30T07:16:25.327Z,55.79
2018-01-30T07:18:54.686Z,55.68
2018-01-30T07:21:23.281Z,54.81
2018-01-30T07:23:51.734Z,55.05
2018-01-30T07:26:22.286Z,55.43
2018-01-30T07:28:52.158Z,54.92
2018-01-30T07:31:21.099Z,54.13
2018-01-30T07:33:49.572Z,54.01
2018-01-30T07:36:18.021Z,54.20
2018-01-30T07:38:46.949Z,55.40
2018-01-30T07:41:15.657Z,54.97
2018-01-30T07:43:44.469Z,54.42
2018-01-30T07:46:13.028Z,54.03
2018-01-30T07:48:41.498Z,53.13
2018-01-30T07:51:10.790Z,53.97
2018-01-30T07:53:40.264Z,54.13
2018-01-30T07:56:09.293Z,54.55
2018-01-30T07:58:38.568Z,55.24
2018-01-30T08:01:07.009Z,54.40
2018-01-30T08:03:35.453Z,55.64
2018-01-30T08:06:03.901Z,54.32
2018-01-30T08:08:32.410Z,54.13
2018-01-30T08:11:00.846Z,54.27
2018-01-30T08:13:30.872Z,53.98
2018-01-30T08:16:15.383Z,55.15
2018-01-30T08:18:49.582Z,54.94
2018-01-30T08:21:18.021Z,54.31
2018-01-30T08:23:46.953Z,54.60
2018-01-30T08:26:15.441Z,54.33
2018-01-30T08:28:45.128Z,54.69
2018-01-30T08:31:13.653Z,54.10
2018-01-30T08:33:42.113Z,53.13
2018-01-30T08:36:10.594Z,53.71
2018-01-30T08:38:39.747Z,54.44
2018-01-30T08:41:08.673Z,54.54
2018-01-30T08:43:37.099Z,53.54
2018-01-30T08:46:07.259Z,52.90
2018-01-30T08:48:35.613Z,53.96
2018-01-30T08:51:04.379Z,53.72
2018-01-30T08:53:35.291Z,53.60
2018-01-30T08:56:03.710Z,54.34
2018-01-30T08:58:33.654Z,54.90
2018-01-30T09:01:02.423Z,54.03
2018-01-30T09:03:31.191Z,53.78
2018-01-30T09:05:59.567Z,54.20
2018-01-30T09:08:28.027Z,53.38
2018-01-30T09:10:56.408Z,53.01
2018-01-30T09:13:24.788Z,52.83
2018-01-30T09:15:53.132Z,52.49
2018-01-30T09:18:21.491Z,52.11
2018-01-30T09:20:50.336Z,52.47
2018-01-30T09:23:18.716Z,52.92
2018-01-30T09:25:47.095Z,52.95
2018-01-30T09:28:15.446Z,52.65
2018-01-30T09:30:43.809Z,52.44
2018-01-30T09:33:12.181Z,52.22
2018-01-30T09:35:41.016Z,51.87
2018-01-30T09:38:09.399Z,51.48
2018-01-30T09:40:37.772Z,52.33
2018-01-30T09:43:06.137Z,52.03
2018-01-30T09:45:34.521Z,51.36
2018-01-30T09:48:02.931Z,51.06
2018-01-30T09:50:31.283Z,50.31
2018-01-30T09:52:59.706Z,51.63
2018-01-30T09:55:28.129Z,51.74
2018-01-30T09:57:56.501Z,51.61
2018-01-30T10:00:24.844Z,51.22
2018-01-30T10:02:53.288Z,50.95
2018-01-30T10:05:21.636Z,51.38
2018-01-30T10:07:50.049Z,51.97
2018-01-30T10:10:18.420Z,52.24
2018-01-30T10:12:46.772Z,52.45
2018-01-30T10:15:15.141Z,52.22
2018-01-30T10:17:43.588Z,51.58
2018-01-30T10:20:11.966Z,51.45
2018-01-30T10:22:40.421Z,51.38
2018-01-30T10:25:08.775Z,51.56
2018-01-30T10:27:37.133Z,51.48
2018-01-30T10:30:05.939Z,50.59
2018-01-30T10:32:34.355Z,50.68
2018-01-30T10:35:02.692Z,50.96
2018-01-30T10:37:31.049Z,50.28
2018-01-30T10:39:59.787Z,50.49
2018-01-30T10:42:28.164Z,50.07
2018-01-30T10:44:56.519Z,49.83
2018-01-30T10:47:24.890Z,50.41
2018-01-30T10:49:53.299Z,50.50
2018-01-30T10:52:21.653Z,49.83
2018-01-30T10:54:50.070Z,49.79
2018-01-30T10:57:18.553Z,49.98
2018-01-30T10:59:46.916Z,50.69
2018-01-30T11:02:15.286Z,50.22
2018-01-30T11:04:43.655Z,50.36
2018-01-30T11:07:12.004Z,50.32
2018-01-30T11:09:40.431Z,50.11
2018-01-30T11:12:08.775Z,51.09
2018-01-30T11:14:37.202Z,50.80
2018-01-30T11:17:05.610Z,50.59
2018-01-30T11:19:34.056Z,49.94
2018-01-30T11:22:02.750Z,49.87
2018-01-30T11:24:31.140Z,50.06
2018-01-30T11:26:59.506Z,50.52
2018-01-30T11:29:27.870Z,50.13
2018-01-30T11:31:56.248Z,49.47
2018-01-30T11:34:24.657Z,49.47
2018-01-30T11:36:53.112Z,49.92
2018-01-30T11:39:21.456Z,49.71
2018-01-30T11:41:49.871Z,49.35
2018-01-30T11:44:18.222Z,48.58
2018-01-30T11:46:46.603Z,49.13
2018-01-30T11:49:14.959Z,49.07
2018-01-30T11:51:43.700Z,49.38
2018-01-30T11:54:12.077Z,49.64
2018-01-30T11:56:40.440Z,49.28
2018-01-30T11:59:08.883Z,49.10
2018-01-30T12:01:37.742Z,49.52
2018-01-30T12:04:06.200Z,49.68
2018-01-30T12:06:34.548Z,49.60
2018-01-30T12:09:02.959Z,48.20
2018-01-30T12:11:31.357Z,47.54
2018-01-30T12:13:59.721Z,47.54
2018-01-30T12:16:28.092Z,46.98
2018-01-30T12:18:56.476Z,46.63
2018-01-30T12:21:24.849Z,47.53
2018-01-30T12:23:53.227Z,48.63
2018-01-30T12:26:21.592Z,49.12
2018-01-30T12:28:49.935Z,49.02
2018-01-30T12:31:18.694Z,47.93
2018-01-30T12:33:47.070Z,47.57
2018-01-30T12:36:15.468Z,47.72
2018-01-30T12:38:43.814Z,46.71
2018-01-30T12:41:12.236Z,47.07
2018-01-30T12:43:41.012Z,46.85
2018-01-30T12:46:09.511Z,46.64
2018-01-30T12:48:38.356Z,46.81
2018-01-30T12:51:06.712Z,46.22
2018-01-30T12:53:35.111Z,46.63
2018-01-30T12:56:03.497Z,46.36
2018-01-30T12:58:31.879Z,46.15
2018-01-30T13:01:00.244Z,46.31
2018-01-30T13:03:28.628Z,46.12
2018-01-30T13:05:57.000Z,45.71
2018-01-30T13:08:25.348Z,46.01
2018-01-30T13:10:53.780Z,45.93
2018-01-30T13:13:22.127Z,45.48
2018-01-30T13:15:50.595Z,45.66
2018-01-30T13:18:18.965Z,46.77
2018-01-30T13:20:47.320Z,47.34
2018-01-30T13:23:16.093Z,46.59
2018-01-30T13:25:44.454Z,46.23
2018-01-30T13:28:12.867Z,45.88
2018-01-30T13:30:41.602Z,45.94
2018-01-30T13:33:09.993Z,46.40
2018-01-30T13:35:38.359Z,45.64
2018-01-30T13:38:06.707Z,45.51
2018-01-30T13:40:35.067Z,45.93
2018-01-30T13:43:03.917Z,46.44
2018-01-30T13:45:32.328Z,46.30
2018-01-30T13:48:00.777Z,46.43
2018-01-30T13:50:29.162Z,45.98
2018-01-30T13:52:57.524Z,45.33
2018-01-30T13:55:25.881Z,46.95
2018-01-30T13:57:54.285Z,46.64
2018-01-30T14:00:22.662Z,46.38
2018-01-30T14:02:51.011Z,46.07
2018-01-30T14:05:19.431Z,46.15
2018-01-30T14:07:47.792Z,45.89
2018-01-30T14:10:16.156Z,46.22
2018-01-30T14:12:44.510Z,46.47
2018-01-30T14:15:13.358Z,46.73
2018-01-30T14:17:41.712Z,46.41
2018-01-30T14:20:10.056Z,46.66
2018-01-30T14:22:38.896Z,45.67
2018-01-30T14:25:07.274Z,45.20
2018-01-30T14:27:35.756Z,46.14
2018-01-30T14:30:04.109Z,45.75
2018-01-30T14:32:32.516Z,45.16
2018-01-30T14:35:00.893Z,45.36
2018-01-30T14:37:29.245Z,45.63
2018-01-30T14:39:57.649Z,45.70
2018-01-30T14:42:26.028Z,45.00
2018-01-30T14:44:54.376Z,45.05
2018-01-30T14:47:22.740Z,44.98
2018-01-30T14:49:51.116Z,46.31
2018-01-30T14:52:20.030Z,46.24
2018-01-30T14:54:48.379Z,46.58
2018-01-30T14:57:17.125Z,46.71
2018-01-30T14:59:45.519Z,47.67
2018-01-30T15:02:13.892Z,47.36
2018-01-30T15:04:42.254Z,46.53
2018-01-30T15:07:10.711Z,45.58
2018-01-30T15:09:39.069Z,46.05
2018-01-30T15:12:07.903Z,46.67
2018-01-30T15:14:36.360Z,46.58
2018-01-30T15:17:04.704Z,45.96
2018-01-30T15:19:33.456Z,46.08
2018-01-30T15:22:01.807Z,46.49
2018-01-30T15:24:30.172Z,46.71
2018-01-30T15:26:58.529Z,46.80
2018-01-30T15:29:26.976Z,46.53
2018-01-30T15:31:55.349Z,46.35
2018-01-30T15:34:23.696Z,46.24
2018-01-30T15:36:52.047Z,46.47
2018-01-30T15:39:20.895Z,46.57
2018-01-30T15:41:49.248Z,46.39
2018-01-30T15:44:17.593Z,46.44
2018-01-30T15:46:46.340Z,47.09
2018-01-30T15:49:14.684Z,46.64
2018-01-30T15:51:43.057Z,46.84
2018-01-30T15:54:11.426Z,46.36
2018-01-30T15:56:40.316Z,46.05
2018-01-30T15:59:09.151Z,46.00
2018-01-30T16:01:37.525Z,45.99
2018-01-30T16:04:05.909Z,45.84
2018-01-30T16:06:34.289Z,46.23
2018-01-30T16:09:02.655Z,46.46
2018-01-30T16:11:31.037Z,46.32
2018-01-30T16:13:59.436Z,46.41
2018-01-30T16:16:27.806Z,46.82
2018-01-30T16:18:56.151Z,46.72
2018-01-30T16:21:24.505Z,47.29
2018-01-30T16:23:53.340Z,47.92
2018-01-30T16:26:21.724Z,48.06
2018-01-30T16:28:50.092Z,48.09
2018-01-30T16:31:18.477Z,48.13
2018-01-30T16:33:46.835Z,48.03
2018-01-30T16:36:15.203Z,47.78
2018-01-30T16:38:43.555Z,48.55
2018-01-30T16:41:11.896Z,48.43
2018-01-30T16:43:40.258Z,48.67
2018-01-30T16:46:08.664Z,48.99
2018-01-30T16:48:37.017Z,49.29
2018-01-30T16:51:05.372Z,49.25
2018-01-30T16:53:33.789Z,48.78
2018-01-30T16:56:02.295Z,48.31
2018-01-30T16:58:30.634Z,48.94
2018-01-30T17:00:59.028Z,49.18
2018-01-30T17:03:27.398Z,48.89
2018-01-30T17:05:55.747Z,48.78
2018-01-30T17:08:24.095Z,49.06
2018-01-30T17:10:52.550Z,49.37
2018-01-30T17:13:20.917Z,49.59
2018-01-30T17:15:49.304Z,49.45
2018-01-30T17:18:17.660Z,49.50
2018-01-30T17:20:46.029Z,50.50
2018-01-30T17:23:14.376Z,49.80
2018-01-30T17:25:43.136Z,51.45
2018-01-30T17:28:11.475Z,50.68
2018-01-30T17:30:39.848Z,50.51
2018-01-30T17:33:08.227Z,50.59
2018-01-30T17:35:36.660Z,50.45
2018-01-30T17:38:05.017Z,50.21
2018-01-30T17:40:33.392Z,50.46
2018-01-30T17:43:01.772Z,50.08
2018-01-30T17:45:30.135Z,50.19
2018-01-30T17:47:58.612Z,50.24
2018-01-30T17:50:26.971Z,51.07
2018-01-30T17:52:55.721Z,50.98
2018-01-30T17:55:24.076Z,50.52
2018-01-30T17:57:52.464Z,51.10
2018-01-30T18:00:20.828Z,50.80
2018-01-30T18:02:49.214Z,50.92
2018-01-30T18:05:17.620Z,50.67
2018-01-30T18:07:46.082Z,51.42
2018-01-30T18:10:14.442Z,51.04
2018-01-30T18:12:42.810Z,51.07
2018-01-30T18:15:11.289Z,51.44
2018-01-30T18:17:39.659Z,51.34
2018-01-30T18:20:08.080Z,51.53
2018-01-30T18:22:36.462Z,51.39
2018-01-30T18:25:04.836Z,51.43
2018-01-30T18:27:33.319Z,51.39
2018-01-30T18:30:01.678Z,51.62
2018-01-30T18:32:30.029Z,51.88
2018-01-30T18:34:58.383Z,51.97
2018-01-30T18:37:27.128Z,52.28
2018-01-30T18:39:55.499Z,52.52
2018-01-30T18:42:23.852Z,52.04
2018-01-30T18:44:52.229Z,52.24
2018-01-30T18:47:20.646Z,52.50
2018-01-30T18:49:49.011Z,52.72
2018-01-30T18:52:17.364Z,52.63
2018-01-30T18:54:45.758Z,52.48
2018-01-30T18:57:14.139Z,52.70
2018-01-30T18:59:42.542Z,52.92
2018-01-30T19:02:11.352Z,53.33
2018-01-30T19:04:39.700Z,52.99
2018-01-30T19:07:08.101Z,53.03
2018-01-30T19:09:36.473Z,53.10
2018-01-30T19:12:04.969Z,53.26
2018-01-30T19:14:33.323Z,53.25
2018-01-30T19:17:01.710Z,53.24
2018-01-30T19:19:30.088Z,53.03
2018-01-30T19:21:58.442Z,52.73
2018-01-30T19:24:26.795Z,52.75
2018-01-30T19:26:55.650Z,52.76
2018-01-30T19:29:24.007Z,52.80
2018-01-30T19:31:52.369Z,52.40
2018-01-30T19:34:20.719Z,52.58
2018-01-30T19:36:49.459Z,52.57
2018-01-30T19:39:17.856Z,52.54
2018-01-30T19:41:46.232Z,52.91
2018-01-30T19:44:14.584Z,52.66
2018-01-30T19:46:42.945Z,52.21
2018-01-30T19:49:11.303Z,52.55
2018-01-30T19:51:40.138Z,52.31
2018-01-30T19:54:08.498Z,52.37
2018-01-30T19:56:36.892Z,52.31
2018-01-30T19:59:05.228Z,52.47
2018-01-30T20:01:34.138Z,53.10
2018-01-30T20:04:02.483Z,53.04
2018-01-30T20:06:31.247Z,53.36
2018-01-30T20:08:59.605Z,52.87
2018-01-30T20:11:29.848Z,52.97
2018-01-30T20:13:58.316Z,53.31
2018-01-30T20:16:26.668Z,53.36
2018-01-30T20:18:55.078Z,52.78
2018-01-30T20:21:23.450Z,53.13
2018-01-30T20:23:51.816Z,52.68
2018-01-30T20:26:20.163Z,52.32
2018-01-30T20:28:48.575Z,52.31
2018-01-30T20:31:16.940Z,52.64
2018-01-30T20:33:45.336Z,52.70
2018-01-30T20:36:13.725Z,52.40
2018-01-30T20:38:42.112Z,52.73
2018-01-30T20:41:10.555Z,52.87
2018-01-30T20:43:38.963Z,52.92
2018-01-30T20:46:07.428Z,53.02
2018-01-30T20:48:35.786Z,53.02
2018-01-30T20:51:04.173Z,52.98
2018-01-30T20:53:32.575Z,53.21
2018-01-30T20:56:01.283Z,53.35
2018-01-30T20:58:29.647Z,53.30
2018-01-30T21:00:58.458Z,53.45
2018-01-30T21:03:28.850Z,53.79
2018-01-30T21:05:57.219Z,53.58
2018-01-30T21:08:27.135Z,53.59
2018-01-30T21:10:55.699Z,53.66
2018-01-30T21:13:24.099Z,54.56
2018-01-30T21:15:52.903Z,54.46
2018-01-30T21:18:21.524Z,54.73
2018-01-30T21:20:50.390Z,54.25
2018-01-30T21:23:19.088Z,54.10
2018-01-30T21:25:49.090Z,54.66
2018-01-30T21:28:19.546Z,54.63
2018-01-30T21:30:48.193Z,54.73
2018-01-30T21:33:16.857Z,54.93
2018-01-30T21:35:45.799Z,55.24
2018-01-30T21:38:14.370Z,55.01
2018-01-30T21:40:44.336Z,54.96
2018-01-30T21:43:13.734Z,55.07
2018-01-30T21:45:42.978Z,55.03
2018-01-30T21:48:11.343Z,55.49
2018-01-30T21:50:39.729Z,55.40
2018-01-30T21:53:08.756Z,55.15
2018-01-30T21:55:37.937Z,55.26
2018-01-30T21:58:06.567Z,55.66
2018-01-30T22:00:35.164Z,55.88
2018-01-30T22:03:03.620Z,56.61
2018-01-30T22:05:34.022Z,56.14
2018-01-30T22:08:06.244Z,55.83
2018-01-30T22:10:35.074Z,55.56
2018-01-30T22:13:03.566Z,55.06
2018-01-30T22:15:32.044Z,55.99
2018-01-30T22:18:00.711Z,55.19
2018-01-30T22:20:29.508Z,55.68
2018-01-30T22:22:58.401Z,55.03
2018-01-30T22:25:27.310Z,55.41
2018-01-30T22:27:56.057Z,55.37
2018-01-30T22:30:24.720Z,55.29
2018-01-30T22:32:53.705Z,54.62
2018-01-30T22:35:23.091Z,54.90
2018-01-30T22:37:52.321Z,54.50
2018-01-30T22:40:20.807Z,54.39
2018-01-30T22:42:50.693Z,54.36
2018-01-30T22:45:19.204Z,54.58
